• Join FlightAware (Why Join?)
  • Login
  • US Flag 
Rudolph Flight #1: Scheduled 
09:46PM EST


 

Airport Tracker/Info


-or-


 

Live Flight TrackerFlight Track Log ✈ RPA4886 ✈ 10-May-2013 ✈ KALB - KIAD

Flight Track Log - Related Links

Times and Time Zones

All times are in EDT time to prevent confusion due to time zone crossing. See the RPA4886 flight status page for this flight to view local times or setup timezone preferences in your user account.

Time Position Orientation Groundspeed Altitude Reporting Facility
EDT Latitude Longitude Course Direction KTS MPH feet Rate Location/Type
12:38AM 42.6717 -73.9622 230° Southwest 217 250 8,400  Level Boston Center
12:39AM 42.6247 -74.0258 225° Southwest 213 245 10,500 2,280 Climbing Boston Center
12:40AM 42.5822 -74.0925 229° Southwest 227 261 13,000 2,460 Climbing Boston Center
12:41AM 42.5417 -74.1561 229° Southwest 243 280 15,500 2,160 Climbing Boston Center
12:42AM 42.5031 -74.2200 231° Southwest 232 267 17,400 1,860 Climbing Boston Center
12:43AM 42.4689 -74.2836 234° Southwest 225 259 19,300 1,260 Climbing Boston Center
12:44AM 42.2680 -74.5215 230° Southwest  Level FlightAware Approximate
12:44AM 42.4303 -74.3472 231° Southwest 225 259 20,000  Level Boston Center
12:45AM 42.3808 -74.4272 230° Southwest 250 288 20,000  Level Boston Center
12:46AM 42.3253 -74.5125 229° Southwest 284 327 20,000  Level Boston Center
12:47AM 42.2714 -74.5978 230° Southwest 305 351 20,000  Level Boston Center
12:48AM 42.2156 -74.6883 230° Southwest 315 362 20,000  Level Boston Center
12:51AM 42.1047 -74.8661 230° Southwest 315 362 20,000  Level New York Center
12:52AM 42.0431 -74.9628 229° Southwest 322 371 20,000  Level New York Center
12:53AM 41.9878 -75.0483 229° Southwest 317 365 20,000  Level New York Center
12:54AM 41.9347 -75.1342 230° Southwest 317 365 20,000  Level New York Center
12:55AM 41.8794 -75.2197 229° Southwest 317 365 20,000  Level New York Center
12:56AM 41.8242 -75.3050 229° Southwest 317 365 20,000  Level New York Center
12:57AM 41.7686 -75.3958 231° Southwest 317 365 20,000  Level New York Center
12:58AM 41.7133 -75.4808 229° Southwest 317 365 20,000  Level New York Center
12:59AM 41.6578 -75.5658 229° Southwest 317 365 20,000  Level New York Center
01:00AM 41.6247 -75.6161 229° Southwest 317 365 20,000  Level New York Center
01:01AM 41.5356 -75.7564 230° Southwest 323 372 20,000  Level New York Center
01:02AM 41.4797 -75.8439 230° Southwest 317 365 20,000  Level New York Center
01:03AM 41.4086 -75.9019 211° Southwest 312 359 20,000  Level New York Center
01:04AM 41.3372 -75.9575 210° Southwest 312 359 20,000  Level New York Center
01:05AM 41.2664 -76.0100 209° Southwest 312 359 20,000  Level New York Center
01:06AM 41.1950 -76.0678 211° Southwest 307 353 20,000  Level New York Center
01:07AM 41.1217 -76.1253 211° Southwest 307 353 20,000  Level New York Center
01:08AM 41.0481 -76.1828 211° Southwest 307 353 20,000  Level New York Center
01:09AM 40.9769 -76.2378 210° Southwest 307 353 20,000  Level New York Center
01:10AM 40.9033 -76.2950 210° Southwest 307 353 20,000  Level New York Center
01:11AM 40.8297 -76.3519 210° Southwest 313 360 20,000  Level New York Center
01:12AM 40.7561 -76.4092 210° Southwest 313 360 20,000  Level New York Center
01:13AM 40.6847 -76.4661 211° Southwest 313 360 20,000  Level New York Center
01:14AM 40.6111 -76.5231 210° Southwest 308 354 20,000  Level New York Center
01:15AM 40.5375 -76.5797 210° Southwest 308 354 20,000  Level New York Center
01:16AM 40.4572 -76.6411 210° Southwest 308 354 20,000  Level New York Center
01:17AM 40.3836 -76.6975 210° Southwest 308 354 20,000 -180 Level New York Center
01:18AM 40.3058 -76.7533 209° Southwest 308 354 19,700 -900 Descending New York Center
01:19AM 40.2319 -76.8097 210° Southwest 308 354 18,300 -1,560 Descending New York Center
01:20AM 40.1603 -76.8658 211° Southwest 308 354 16,600 -1,500 Descending New York Center
01:21AM 40.1017 -76.9122 211° Southwest 308 354 15,400 -1,500 Descending New York Center
01:23AM 39.9500 -77.0333 211° Southwest 303 349 12,400 -1,560 Descending Potomac TRACON
01:24AM 39.8833 -77.0833 210° Southwest 281 323 10,900 -1,560 Descending Potomac TRACON
01:25AM 39.8333 -77.1333 218° Southwest 256 295 9,300 -900 Descending Potomac TRACON
01:26AM 39.7833 -77.1833 218° Southwest 225 259 9,100 -300 Descending Potomac TRACON
01:27AM 39.7333 -77.2333 218° Southwest 216 249 8,800 -660 Descending Potomac TRACON
01:28AM 39.6833 -77.2833 218° Southwest 222 255 7,800 -900 Descending Potomac TRACON
01:29AM 39.6500 -77.3333 229° Southwest 205 236 7,100 -240 Descending Potomac TRACON
01:31AM 39.5140 -77.3484 185° South  Level FlightAware Approximate
01:31AM 39.4833 -77.3333 185° South 224 258 7,100  Level Potomac TRACON
01:32AM 39.4167 -77.3333 180° South 224 258 7,100 -420 Level Potomac TRACON
01:33AM 39.3667 -77.3500 194° South 228 262 6,300 -900 Descending Potomac TRACON
01:34AM 39.3000 -77.3500 180° South 224 258 5,300 -1,020 Descending Potomac TRACON
01:35AM 39.2333 -77.3500 180° South 217 250 4,300 -600 Descending Potomac TRACON
01:36AM 39.1833 -77.3500 180° South 212 244 4,100 -120 Descending Potomac TRACON
01:37AM 39.1167 -77.3500 180° South 213 245 4,100  Level Potomac TRACON
01:38AM 39.0667 -77.3500 180° South 210 242 4,100 -300 Level Potomac TRACON
01:39AM 39.0000 -77.3500 180° South 215 247 3,500 -480 Descending Potomac TRACON
01:41AM 38.9333 -77.3667 191° South 208 239 3,100 -240 Descending Potomac TRACON
01:42AM 38.8833 -77.3667 180° South 180 207 3,100 -540 Level Potomac TRACON
01:43AM 38.8667 -77.4000 237° Southwest 187 215 2,100 -960 Descending Potomac TRACON
01:44AM 38.8833 -77.4333 303° West 130 150 1,200 -780 Descending Potomac TRACON
01:45AM 38.9167 -77.4333 360° North 144 166 600 -600 Descending Potomac TRACON
01:46AM 38.9333 -77.4500 90° East  Level FlightAware Approximate
01:53AM 38.9474 -77.4599 90° East  Level Estimated